createdAt,value
2022-10-17T00:01:45.807Z,100.00
2022-10-17T00:04:13.493Z,100.00
2022-10-17T00:06:41.304Z,100.00
2022-10-17T00:09:09.611Z,100.00
2022-10-17T00:11:37.380Z,100.00
2022-10-17T00:14:06.509Z,100.00
2022-10-17T00:16:37.561Z,100.00
2022-10-17T00:19:06.520Z,100.00
2022-10-17T00:21:34.655Z,100.00
2022-10-17T00:24:02.472Z,100.00
2022-10-17T00:26:30.488Z,100.00
2022-10-17T00:28:58.303Z,100.00
2022-10-17T00:31:27.368Z,100.00
2022-10-17T00:33:55.000Z,100.00
2022-10-17T00:36:24.573Z,100.00
2022-10-17T00:38:55.333Z,100.00
2022-10-17T00:41:25.280Z,100.00
2022-10-17T00:43:56.079Z,100.00
2022-10-17T00:46:25.854Z,100.00
2022-10-17T00:48:56.786Z,100.00
2022-10-17T00:51:32.144Z,100.00
2022-10-17T00:54:00.702Z,100.00
2022-10-17T00:56:28.786Z,100.00
2022-10-17T00:58:56.886Z,100.00
2022-10-17T01:01:24.709Z,100.00
2022-10-17T01:03:52.742Z,100.00
2022-10-17T01:06:21.786Z,100.00
2022-10-17T01:08:49.647Z,100.00
2022-10-17T01:11:31.159Z,100.00
2022-10-17T01:14:05.956Z,100.00
2022-10-17T01:16:44.895Z,100.00
2022-10-17T01:19:41.997Z,100.00
2022-10-17T01:22:20.545Z,100.00
2022-10-17T01:24:54.126Z,100.00
2022-10-17T01:27:39.697Z,100.00
2022-10-17T01:30:26.811Z,100.00
2022-10-17T01:32:59.883Z,100.00
2022-10-17T01:35:35.137Z,100.00
2022-10-17T01:38:10.411Z,100.00
2022-10-17T01:40:43.156Z,100.00
2022-10-17T01:43:16.165Z,100.00
2022-10-17T01:45:50.281Z,100.00
2022-10-17T01:48:23.620Z,100.00
2022-10-17T01:50:54.657Z,100.00
2022-10-17T01:53:29.343Z,100.00
2022-10-17T01:56:00.833Z,100.00
2022-10-17T01:58:31.740Z,100.00
2022-10-17T02:01:01.826Z,100.00
2022-10-17T02:03:34.408Z,100.00
2022-10-17T02:06:02.718Z,100.00
2022-10-17T02:08:43.537Z,100.00
2022-10-17T02:11:15.704Z,100.00
2022-10-17T02:13:57.873Z,100.00
2022-10-17T02:16:36.680Z,100.00
2022-10-17T02:19:24.409Z,100.00
2022-10-17T02:22:02.016Z,100.00
2022-10-17T02:24:39.167Z,100.00
2022-10-17T02:27:13.017Z,100.00
2022-10-17T02:29:48.915Z,100.00
2022-10-17T02:32:22.534Z,100.00
2022-10-17T02:34:54.557Z,100.00
2022-10-17T02:37:26.600Z,100.00
2022-10-17T02:39:56.595Z,100.00
2022-10-17T02:42:26.069Z,100.00
2022-10-17T02:44:56.010Z,100.00
2022-10-17T02:47:28.274Z,100.00
2022-10-17T02:49:58.455Z,100.00
2022-10-17T02:52:30.910Z,100.00
2022-10-17T02:55:04.206Z,100.00
2022-10-17T02:57:38.197Z,100.00
2022-10-17T03:00:09.928Z,100.00
2022-10-17T03:02:41.658Z,100.00
2022-10-17T03:05:11.758Z,100.00
2022-10-17T03:07:39.710Z,100.00
2022-10-17T03:10:07.953Z,100.00
2022-10-17T03:12:35.597Z,100.00
2022-10-17T03:15:03.323Z,100.00
2022-10-17T03:17:31.064Z,100.00
2022-10-17T03:19:58.921Z,100.00
2022-10-17T03:22:28.286Z,100.00
2022-10-17T03:24:56.220Z,100.00
2022-10-17T03:27:23.948Z,100.00
2022-10-17T03:29:51.610Z,100.00
2022-10-17T03:32:19.246Z,100.00
2022-10-17T03:34:46.882Z,100.00
2022-10-17T03:37:14.545Z,100.00
2022-10-17T03:39:43.549Z,100.00
2022-10-17T03:42:11.237Z,100.00
2022-10-17T03:44:38.864Z,100.00
2022-10-17T03:47:09.199Z,100.00
2022-10-17T03:49:39.537Z,100.00
2022-10-17T03:52:07.298Z,100.00
2022-10-17T03:54:34.993Z,100.00
2022-10-17T03:57:04.055Z,100.00
2022-10-17T03:59:31.803Z,100.00
2022-10-17T04:01:59.564Z,100.00
2022-10-17T04:04:27.445Z,100.00
2022-10-17T04:06:55.141Z,100.00
2022-10-17T04:09:22.834Z,100.00
2022-10-17T04:11:50.585Z,100.00
2022-10-17T04:14:19.635Z,100.00
2022-10-17T04:16:47.370Z,100.00
2022-10-17T04:19:15.114Z,100.00
2022-10-17T04:21:42.828Z,100.00
2022-10-17T04:24:12.666Z,100.00
2022-10-17T04:26:40.327Z,100.00
2022-10-17T04:29:08.030Z,100.00
2022-10-17T04:31:37.109Z,100.00
2022-10-17T04:34:04.825Z,100.00
2022-10-17T04:36:32.540Z,100.00
2022-10-17T04:39:01.734Z,100.00
2022-10-17T04:41:29.461Z,100.00
2022-10-17T04:43:57.113Z,100.00
2022-10-17T04:46:24.813Z,100.00
2022-10-17T04:48:55.012Z,100.00
2022-10-17T04:51:24.628Z,100.00
2022-10-17T04:53:54.260Z,100.00
2022-10-17T04:56:24.170Z,100.00
2022-10-17T04:58:51.938Z,100.00
2022-10-17T05:01:21.245Z,100.00
2022-10-17T05:03:49.601Z,100.00
2022-10-17T05:06:21.857Z,100.00
2022-10-17T05:08:50.323Z,100.00
2022-10-17T05:11:23.190Z,100.00
2022-10-17T05:13:52.639Z,100.00
2022-10-17T05:16:20.649Z,100.00
2022-10-17T05:18:52.810Z,100.00
2022-10-17T05:21:23.563Z,100.00
2022-10-17T05:23:51.689Z,100.00
2022-10-17T05:26:19.848Z,100.00
2022-10-17T05:28:47.917Z,100.00
2022-10-17T05:31:15.931Z,100.00
2022-10-17T05:33:43.608Z,100.00
2022-10-17T05:36:11.814Z,100.00
2022-10-17T05:38:40.795Z,100.00
2022-10-17T05:41:08.417Z,100.00
2022-10-17T05:43:36.106Z,100.00
2022-10-17T05:46:05.582Z,100.00
2022-10-17T05:48:33.272Z,100.00
2022-10-17T05:51:02.347Z,100.00
2022-10-17T05:53:32.356Z,100.00
2022-10-17T05:56:03.818Z,100.00
2022-10-17T05:58:49.357Z,100.00
2022-10-17T06:01:18.549Z,100.00
2022-10-17T06:03:46.198Z,100.00
2022-10-17T06:06:15.068Z,100.00
2022-10-17T06:08:43.212Z,100.00
2022-10-17T06:11:12.949Z,100.00
2022-10-17T06:13:41.043Z,100.00
2022-10-17T06:16:08.962Z,100.00
2022-10-17T06:18:36.765Z,100.00
2022-10-17T06:21:05.797Z,100.00
2022-10-17T06:23:33.861Z,100.00
2022-10-17T06:26:01.775Z,100.00
2022-10-17T06:28:31.269Z,100.00
2022-10-17T06:30:59.392Z,100.00
2022-10-17T06:33:27.225Z,100.00
2022-10-17T06:35:55.963Z,100.00
2022-10-17T06:38:24.026Z,100.00
2022-10-17T06:40:51.894Z,100.00
2022-10-17T06:43:20.670Z,100.00
2022-10-17T06:45:50.525Z,100.00
2022-10-17T06:48:18.540Z,100.00
2022-10-17T06:50:46.239Z,100.00
2022-10-17T06:53:13.972Z,100.00
2022-10-17T06:55:42.834Z,100.00
2022-10-17T06:58:10.543Z,100.00
2022-10-17T07:00:38.328Z,100.00
2022-10-17T07:03:07.438Z,100.00
2022-10-17T07:05:35.082Z,100.00
2022-10-17T07:08:02.976Z,100.00
2022-10-17T07:10:30.651Z,100.00
2022-10-17T07:12:58.328Z,100.00
2022-10-17T07:15:25.999Z,100.00
2022-10-17T07:17:53.656Z,100.00
2022-10-17T07:20:22.696Z,100.00
2022-10-17T07:22:50.321Z,100.00
2022-10-17T07:25:18.120Z,100.00
2022-10-17T07:27:45.798Z,100.00
2022-10-17T07:30:13.655Z,100.00
2022-10-17T07:32:41.398Z,100.00
2022-10-17T07:35:09.758Z,100.00
2022-10-17T07:37:39.549Z,100.00
2022-10-17T07:40:09.069Z,100.00
2022-10-17T07:45:06.491Z,100.00
2022-10-17T07:47:35.734Z,100.00
2022-10-17T07:50:03.601Z,100.00
2022-10-17T07:52:31.857Z,100.00
2022-10-17T07:55:01.387Z,100.00
2022-10-17T07:57:29.082Z,100.00
2022-10-17T07:59:56.780Z,100.00
2022-10-17T08:02:26.121Z,100.00
2022-10-17T08:04:54.623Z,100.00
2022-10-17T08:07:28.386Z,100.00
2022-10-17T08:09:57.634Z,100.00
2022-10-17T08:12:27.782Z,100.00
2022-10-17T08:14:56.071Z,100.00
2022-10-17T08:17:24.166Z,100.00
2022-10-17T08:19:51.836Z,100.00
2022-10-17T08:22:19.556Z,100.00
2022-10-17T08:24:47.263Z,100.00
2022-10-17T08:27:15.070Z,100.00
2022-10-17T08:29:48.320Z,100.00
2022-10-17T08:32:16.037Z,100.00
2022-10-17T08:34:43.676Z,100.00
2022-10-17T08:37:13.451Z,100.00
2022-10-17T08:39:41.634Z,100.00
2022-10-17T08:42:32.247Z,100.00
2022-10-17T08:45:14.681Z,100.00
2022-10-17T08:47:46.039Z,100.00
2022-10-17T08:50:19.235Z,100.00
2022-10-17T08:52:51.294Z,100.00
2022-10-17T08:55:23.955Z,100.00
2022-10-17T08:57:51.579Z,100.00
2022-10-17T09:00:22.383Z,100.00
2022-10-17T09:03:01.743Z,100.00
2022-10-17T09:05:41.137Z,100.00
2022-10-17T09:08:21.809Z,100.00
2022-10-17T09:10:57.805Z,100.00
2022-10-17T09:13:39.298Z,100.00
2022-10-17T09:16:31.035Z,100.00
2022-10-17T09:19:03.905Z,100.00
2022-10-17T09:21:44.176Z,100.00
2022-10-17T09:24:17.297Z,100.00
2022-10-17T09:26:46.795Z,100.00
2022-10-17T09:29:22.422Z,100.00
2022-10-17T09:31:59.570Z,100.00
2022-10-17T09:34:30.223Z,100.00
2022-10-17T09:37:00.003Z,100.00
2022-10-17T09:39:31.803Z,100.00
2022-10-17T09:42:01.238Z,100.00
2022-10-17T09:44:32.342Z,100.00
2022-10-17T09:47:16.312Z,100.00
2022-10-17T09:49:45.953Z,100.00
2022-10-17T09:52:16.055Z,100.00
2022-10-17T09:54:47.184Z,100.00
2022-10-17T09:57:16.100Z,97.68
2022-10-17T09:59:46.743Z,91.38
2022-10-17T10:02:21.369Z,93.01
2022-10-17T10:05:05.163Z,89.73
2022-10-17T10:07:36.441Z,89.06
2022-10-17T10:10:06.801Z,93.05
2022-10-17T10:12:36.591Z,87.42
2022-10-17T10:15:34.891Z,92.02
2022-10-17T10:18:04.086Z,85.49
2022-10-17T10:20:34.695Z,79.89
2022-10-17T10:23:13.405Z,81.86
2022-10-17T10:25:52.981Z,90.04
2022-10-17T10:28:21.577Z,83.51
2022-10-17T10:30:52.346Z,84.00
2022-10-17T10:33:23.263Z,82.06
2022-10-17T10:35:57.535Z,87.07
2022-10-17T10:38:25.544Z,89.27
2022-10-17T10:40:56.622Z,85.44
2022-10-17T10:43:32.414Z,84.38
2022-10-17T10:46:01.188Z,80.26
2022-10-17T10:48:35.260Z,79.75
2022-10-17T10:51:08.665Z,77.67
2022-10-17T10:53:45.355Z,75.80
2022-10-17T10:56:18.830Z,73.55
2022-10-17T10:58:55.308Z,72.60
2022-10-17T11:01:30.842Z,75.84
2022-10-17T11:04:13.223Z,81.47
2022-10-17T11:06:45.284Z,77.69
2022-10-17T11:09:24.538Z,68.35
2022-10-17T11:11:59.164Z,67.74
2022-10-17T11:14:39.278Z,68.48
2022-10-17T11:17:17.307Z,71.38
2022-10-17T11:19:56.414Z,73.45
2022-10-17T11:22:29.533Z,68.27
2022-10-17T11:25:01.591Z,63.27
2022-10-17T11:27:30.717Z,64.19
2022-10-17T11:29:59.557Z,66.06
2022-10-17T11:32:32.751Z,66.95
2022-10-17T11:35:06.788Z,65.33
2022-10-17T11:37:40.784Z,62.10
2022-10-17T11:40:20.378Z,60.58
2022-10-17T11:42:58.164Z,58.54
2022-10-17T11:45:30.453Z,60.34
2022-10-17T11:48:05.650Z,60.79
2022-10-17T11:53:28.383Z,58.68
2022-10-17T11:55:59.854Z,60.56
2022-10-17T11:58:43.478Z,58.05
2022-10-17T12:01:22.754Z,58.34
2022-10-17T12:04:13.676Z,61.33
2022-10-17T12:06:56.194Z,57.91
2022-10-17T12:09:31.263Z,57.93
2022-10-17T12:12:01.332Z,56.05
2022-10-17T12:14:42.188Z,53.56
2022-10-17T12:17:29.294Z,54.27
2022-10-17T12:20:25.220Z,54.00
2022-10-17T12:22:56.271Z,54.42
2022-10-17T12:25:29.738Z,52.90
2022-10-17T12:28:20.691Z,51.96
2022-10-17T12:30:58.106Z,51.56
2022-10-17T12:33:32.391Z,51.51
2022-10-17T12:36:46.719Z,52.89
2022-10-17T12:39:53.798Z,58.11
2022-10-17T12:42:47.953Z,55.05
2022-10-17T12:45:46.221Z,55.87
2022-10-17T12:48:13.916Z,53.14
2022-10-17T12:51:34.413Z,53.75
2022-10-17T12:53:59.403Z,52.28
2022-10-17T12:56:37.821Z,52.10
2022-10-17T12:59:14.902Z,55.53
2022-10-17T13:01:46.495Z,51.57
2022-10-17T13:04:14.714Z,52.81
2022-10-17T13:06:48.043Z,49.31
2022-10-17T13:09:24.714Z,50.62
2022-10-17T13:11:53.859Z,47.76
2022-10-17T13:14:25.571Z,45.22
2022-10-17T13:16:55.163Z,48.49
2022-10-17T13:19:26.463Z,46.23
2022-10-17T13:21:56.165Z,47.43
2022-10-17T13:24:29.849Z,48.08
2022-10-17T13:26:58.142Z,47.73
2022-10-17T13:29:28.740Z,49.34
2022-10-17T13:32:01.116Z,50.93
2022-10-17T13:34:29.675Z,53.16
2022-10-17T13:37:00.699Z,52.07
2022-10-17T13:39:45.593Z,53.72
2022-10-17T13:42:26.172Z,52.25
2022-10-17T13:44:55.664Z,42.42
2022-10-17T13:47:25.643Z,44.89
2022-10-17T13:49:55.475Z,44.09
2022-10-17T13:52:27.943Z,47.22
2022-10-17T13:54:56.937Z,46.90
2022-10-17T13:57:27.242Z,42.73
2022-10-17T13:59:59.469Z,44.74
2022-10-17T14:02:29.846Z,47.85
2022-10-17T14:05:19.010Z,43.05
2022-10-17T14:08:10.471Z,43.03
2022-10-17T14:10:41.266Z,40.84
2022-10-17T14:13:20.356Z,43.90
2022-10-17T14:15:50.365Z,43.32
2022-10-17T14:18:21.765Z,46.88
2022-10-17T14:21:33.968Z,43.26
2022-10-17T14:23:42.055Z,44.67
2022-10-17T14:26:16.232Z,43.87
2022-10-17T14:28:46.812Z,49.53
2022-10-17T14:31:30.290Z,48.38
2022-10-17T14:33:58.859Z,50.69
2022-10-17T14:36:39.500Z,51.91
2022-10-17T14:39:17.004Z,53.89
2022-10-17T14:41:46.916Z,60.09
2022-10-17T14:44:21.854Z,61.35
2022-10-17T14:46:55.332Z,62.10
2022-10-17T14:49:29.448Z,62.03
2022-10-17T14:52:38.972Z,62.83
2022-10-17T14:55:25.271Z,63.72
2022-10-17T14:57:53.212Z,64.79
2022-10-17T15:00:22.815Z,67.45
2022-10-17T15:02:53.982Z,67.23
2022-10-17T15:05:23.525Z,68.18
2022-10-17T15:07:51.923Z,70.43
2022-10-17T15:10:29.508Z,71.74
2022-10-17T15:12:59.392Z,75.54
2022-10-17T15:15:32.993Z,82.30
2022-10-17T15:18:03.051Z,80.68
2022-10-17T15:20:31.220Z,80.40
2022-10-17T15:23:00.811Z,85.94
2022-10-17T15:25:29.646Z,93.61
2022-10-17T15:27:58.201Z,100.00
2022-10-17T15:30:27.909Z,96.96
2022-10-17T15:32:55.800Z,97.75
2022-10-17T15:35:25.706Z,100.00
2022-10-17T15:37:53.677Z,100.00
2022-10-17T15:40:23.674Z,100.00
2022-10-17T15:42:51.604Z,100.00
2022-10-17T15:45:21.970Z,100.00
2022-10-17T15:47:52.806Z,100.00
2022-10-17T15:50:21.725Z,100.00
2022-10-17T15:52:52.194Z,100.00
2022-10-17T15:55:20.428Z,100.00
2022-10-17T15:57:49.811Z,100.00
2022-10-17T16:00:20.727Z,100.00
2022-10-17T16:02:49.367Z,100.00
2022-10-17T16:05:19.125Z,100.00
2022-10-17T16:07:47.759Z,100.00
2022-10-17T16:10:17.800Z,100.00
2022-10-17T16:12:46.762Z,100.00
2022-10-17T16:15:16.507Z,100.00
2022-10-17T16:17:44.472Z,100.00
2022-10-17T16:20:13.879Z,100.00
2022-10-17T16:22:43.718Z,100.00
2022-10-17T16:25:20.919Z,100.00
2022-10-17T16:27:50.459Z,100.00
2022-10-17T16:30:18.998Z,100.00
2022-10-17T16:32:46.989Z,100.00
2022-10-17T16:35:18.436Z,100.00
2022-10-17T16:37:46.276Z,100.00
2022-10-17T16:40:14.745Z,100.00
2022-10-17T16:42:43.870Z,100.00
2022-10-17T16:45:17.536Z,100.00
2022-10-17T16:47:45.268Z,100.00
2022-10-17T16:50:13.033Z,100.00
2022-10-17T16:52:41.150Z,100.00
2022-10-17T16:55:09.870Z,100.00
2022-10-17T16:57:37.875Z,100.00
2022-10-17T17:00:09.008Z,100.00
2022-10-17T17:02:36.742Z,100.00
2022-10-17T17:05:05.150Z,100.00
2022-10-17T17:07:33.701Z,100.00
2022-10-17T17:10:01.624Z,100.00
2022-10-17T17:12:29.553Z,100.00
2022-10-17T17:14:57.392Z,100.00
2022-10-17T17:17:44.536Z,100.00
2022-10-17T17:20:14.554Z,100.00
2022-10-17T17:22:42.366Z,100.00
2022-10-17T17:25:10.884Z,100.00
2022-10-17T17:27:38.728Z,100.00
2022-10-17T17:30:07.743Z,100.00
2022-10-17T17:32:37.032Z,100.00
2022-10-17T17:35:05.298Z,100.00
2022-10-17T17:37:33.382Z,100.00
2022-10-17T17:40:01.211Z,100.00
2022-10-17T17:42:29.110Z,100.00
2022-10-17T17:44:57.035Z,100.00
2022-10-17T17:47:24.880Z,100.00
2022-10-17T17:49:54.044Z,100.00
2022-10-17T17:52:21.834Z,100.00
2022-10-17T17:54:49.601Z,100.00
2022-10-17T17:57:17.457Z,100.00
2022-10-17T17:59:45.365Z,100.00
2022-10-17T18:02:13.061Z,100.00
2022-10-17T18:04:40.775Z,100.00
2022-10-17T18:07:09.862Z,100.00
2022-10-17T18:09:37.580Z,100.00
2022-10-17T18:12:05.852Z,100.00
2022-10-17T18:14:33.543Z,100.00
2022-10-17T18:17:01.262Z,100.00
2022-10-17T18:19:30.165Z,100.00
2022-10-17T18:21:57.812Z,100.00
2022-10-17T18:24:26.936Z,100.00
2022-10-17T18:27:02.220Z,100.00
2022-10-17T18:29:31.111Z,100.00
2022-10-17T18:31:59.819Z,100.00
2022-10-17T18:34:28.326Z,100.00
2022-10-17T18:36:56.265Z,100.00
2022-10-17T18:39:24.119Z,100.00
2022-10-17T18:41:53.172Z,100.00
2022-10-17T18:44:21.099Z,100.00
2022-10-17T18:46:49.008Z,100.00
2022-10-17T18:49:19.439Z,100.00
2022-10-17T18:51:47.854Z,100.00
2022-10-17T18:54:20.302Z,100.00
2022-10-17T18:56:49.970Z,100.00
2022-10-17T18:59:19.201Z,100.00
2022-10-17T19:01:47.329Z,100.00
2022-10-17T19:04:15.399Z,100.00
2022-10-17T19:06:43.827Z,100.00
2022-10-17T19:09:13.541Z,100.00
2022-10-17T19:11:42.054Z,100.00
2022-10-17T19:14:13.319Z,100.00
2022-10-17T19:16:44.489Z,100.00
2022-10-17T19:19:14.656Z,100.00
2022-10-17T19:21:43.185Z,100.00
2022-10-17T19:24:14.780Z,100.00
2022-10-17T19:26:43.938Z,100.00
2022-10-17T19:29:14.595Z,100.00
2022-10-17T19:31:44.119Z,100.00
2022-10-17T19:34:12.760Z,100.00
2022-10-17T19:36:41.082Z,100.00
2022-10-17T19:39:11.913Z,100.00
2022-10-17T19:41:40.979Z,100.00
2022-10-17T19:44:09.128Z,100.00
2022-10-17T19:46:36.876Z,100.00
2022-10-17T19:49:07.303Z,100.00
2022-10-17T19:51:35.296Z,100.00
2022-10-17T19:54:03.384Z,100.00
2022-10-17T19:56:36.742Z,100.00
2022-10-17T19:59:05.147Z,100.00
2022-10-17T20:01:35.261Z,100.00
2022-10-17T20:04:03.186Z,100.00
2022-10-17T20:06:32.979Z,100.00
2022-10-17T20:09:01.121Z,100.00
2022-10-17T20:11:30.475Z,100.00
2022-10-17T20:13:59.924Z,100.00
2022-10-17T20:16:30.910Z,100.00
2022-10-17T20:19:03.788Z,100.00
2022-10-17T20:21:34.991Z,100.00
2022-10-17T20:26:39.389Z,100.00
2022-10-17T20:29:15.639Z,100.00
2022-10-17T20:31:45.368Z,100.00
2022-10-17T20:34:15.023Z,100.00
2022-10-17T20:36:44.614Z,100.00
2022-10-17T20:39:13.830Z,100.00
2022-10-17T20:41:42.340Z,100.00
2022-10-17T20:44:10.218Z,100.00
2022-10-17T20:46:44.327Z,100.00
2022-10-17T20:49:19.967Z,100.00
2022-10-17T20:51:49.222Z,100.00
2022-10-17T20:54:16.848Z,100.00
2022-10-17T20:56:44.679Z,100.00
2022-10-17T20:59:14.331Z,100.00
2022-10-17T21:01:42.245Z,100.00
2022-10-17T21:04:40.323Z,100.00
2022-10-17T21:06:59.944Z,100.00
2022-10-17T21:09:27.689Z,100.00
2022-10-17T21:11:56.043Z,100.00
2022-10-17T21:14:25.142Z,100.00
2022-10-17T21:16:53.118Z,100.00
2022-10-17T21:19:21.689Z,100.00
2022-10-17T21:21:49.340Z,100.00
2022-10-17T21:24:20.531Z,100.00
2022-10-17T21:26:55.028Z,100.00
2022-10-17T21:29:23.451Z,100.00
2022-10-17T21:31:51.276Z,100.00
2022-10-17T21:34:20.794Z,100.00
2022-10-17T21:36:49.127Z,100.00
2022-10-17T21:39:18.888Z,100.00
2022-10-17T21:41:46.680Z,100.00
2022-10-17T21:44:16.630Z,100.00
2022-10-17T21:46:44.739Z,100.00
2022-10-17T21:49:14.479Z,100.00
2022-10-17T21:51:42.982Z,100.00
2022-10-17T21:54:10.678Z,100.00
2022-10-17T21:56:39.695Z,100.00
2022-10-17T21:59:07.843Z,100.00
2022-10-17T22:01:37.587Z,100.00
2022-10-17T22:04:07.233Z,100.00
2022-10-17T22:06:40.525Z,100.00
2022-10-17T22:09:10.796Z,100.00
2022-10-17T22:11:40.308Z,100.00
2022-10-17T22:14:11.814Z,100.00
2022-10-17T22:16:40.088Z,100.00
2022-10-17T22:19:09.067Z,100.00
2022-10-17T22:21:37.830Z,100.00
2022-10-17T22:24:08.434Z,100.00
2022-10-17T22:26:38.143Z,100.00
2022-10-17T22:29:08.972Z,100.00
2022-10-17T22:31:37.681Z,100.00
2022-10-17T22:34:06.378Z,100.00
2022-10-17T22:36:34.707Z,100.00
2022-10-17T22:39:02.426Z,100.00
2022-10-17T22:41:30.056Z,100.00
2022-10-17T22:43:57.783Z,100.00
2022-10-17T22:46:27.010Z,100.00
2022-10-17T22:48:54.856Z,100.00
2022-10-17T22:53:55.727Z,100.00
2022-10-17T22:56:23.801Z,100.00
2022-10-17T23:05:00.577Z,100.00
2022-10-17T23:07:28.800Z,100.00
2022-10-17T23:09:56.444Z,100.00
2022-10-17T23:12:24.217Z,100.00
2022-10-17T23:14:51.949Z,100.00
2022-10-17T23:17:19.611Z,100.00
2022-10-17T23:19:47.245Z,100.00
2022-10-17T23:22:16.218Z,100.00
2022-10-17T23:24:43.874Z,100.00
2022-10-17T23:27:11.624Z,100.00
2022-10-17T23:29:39.268Z,100.00
2022-10-17T23:32:07.164Z,100.00
2022-10-17T23:34:34.785Z,100.00
2022-10-17T23:37:02.435Z,100.00
2022-10-17T23:39:31.468Z,100.00
2022-10-17T23:41:59.096Z,100.00
2022-10-17T23:44:26.744Z,100.00
2022-10-17T23:46:54.407Z,100.00
2022-10-17T23:49:22.079Z,100.00
2022-10-17T23:51:49.719Z,100.00
2022-10-17T23:54:17.514Z,100.00
2022-10-17T23:56:46.543Z,100.00
2022-10-17T23:59:14.252Z,100.00
